Green Garnet — 3FEH6 — position and weather

sailwx.info

Track history (hours):
 
Tides and Currents Weather Stations Pressure Air Temp Water Temp Dewpoint Dewpoint Depression Visibility Wind Speed Wind Dir Waves Ship Positions

Green Garnet

Last reported at 2016-Dec-26 04:31 UTC. Time now 2017-Mar-25 09:53 UTC.
Position N 35°22' E 119°32'.
Warning: this ship's position is months out of date.

Length 209 m; draft 10.5 m.

Type: Cargo ship. MMSI: 356345000.

Date/timePositionNaut miles runAvg speedWind from/ knotsBaromVisibWave heightAir tempDewpointWater temp
2016-Dec-26 04:31N 35°22' E 119°32'0 0.0
2016-Dec-26 03:31N 35°22' E 119°32'0 0.0
2016-Dec-26 02:31N 35°22' E 119°32'0 0.0
2016-Dec-26 01:31N 35°22' E 119°32'0 0.0
2016-Dec-26 00:31N 35°22' E 119°32'0 0.0
2016-Dec-25 23:31N 35°22' E 119°32'0 0.0
2016-Dec-25 22:31N 35°22' E 119°32'0 0.0
2016-Dec-25 21:25N 35°22' E 119°32'0 0.0
2016-Dec-25 20:13N 35°22' E 119°32'0 0.1
2016-Dec-25 19:31N 35°22' E 119°32'0 0.0
2016-Dec-25 18:14N 35°22' E 119°32'0 0.1
2016-Dec-25 17:32N 35°22' E 119°32'0 0.0
2016-Dec-25 16:32N 35°22' E 119°32'0 0.0
2016-Dec-25 15:32N 35°22' E 119°32'0 0.0
2016-Dec-25 14:14N 35°22' E 119°32'0 0.0
2016-Dec-25 13:32N 35°22' E 119°32'0 0.0
2016-Dec-25 11:32N 35°22' E 119°32'0 0.0
2016-Dec-25 10:26N 35°22' E 119°32'0 0.1
2016-Dec-25 09:32N 35°22' E 119°32'0 0.0
2016-Dec-25 08:32N 35°22' E 119°32'0 0.0
2016-Dec-25 07:32N 35°22' E 119°32'0 0.0
2016-Dec-25 06:26N 35°22' E 119°32'0 0.1
2016-Dec-25 05:32N 35°22' E 119°32'0 0.0
2016-Dec-25 04:25N 35°22' E 119°32'0 0.0
2016-Dec-25 03:25N 35°22' E 119°32'0 0.1
2016-Dec-25 02:31N 35°22' E 119°32'0 0.0
2016-Dec-25 01:31N 35°22' E 119°32'0 0.0
2016-Dec-25 00:25N 35°22' E 119°32'0 0.0
2016-Dec-24 23:25N 35°22' E 119°32'0 0.0
2016-Dec-24 22:13N 35°22' E 119°32'0 0.0
2016-Dec-24 21:31N 35°22' E 119°32'0 0.0
2016-Dec-24 18:07N 35°22' E 119°32'0 0.1
2016-Dec-24 17:31N 35°22' E 119°32'0 0.0
2016-Dec-24 14:31N 35°22' E 119°32'0 0.0
2016-Dec-24 13:31N 35°22' E 119°32'0 0.0
2016-Dec-24 12:13N 35°22' E 119°32'0 0.1
2016-Dec-24 11:25N 35°22' E 119°32'0 0.1
2016-Dec-24 10:31N 35°22' E 119°32'0 0.0
2016-Dec-24 09:13N 35°22' E 119°32'0 0.1
2016-Dec-24 08:31N 35°22' E 119°32'0 0.0
2016-Dec-24 07:07N 35°22' E 119°32'0 0.0
2016-Dec-24 05:31N 35°22' E 119°32'0 0.0
2016-Dec-24 04:19N 35°22' E 119°32'0 0.1
2016-Dec-24 03:31N 35°22' E 119°32'0 0.0
2016-Dec-24 02:31N 35°22' E 119°32'0 0.0
2016-Dec-23 23:31N 35°22' E 119°32'0 0.0
2016-Dec-23 20:31N 35°22' E 119°32'0 0.0
2016-Dec-23 19:25N 35°22' E 119°32'0 0.0
2016-Dec-23 17:31N 35°22' E 119°32'0 0.0
2016-Dec-23 16:07N 35°22' E 119°32'0 0.0
2016-Dec-23 14:25N 35°22' E 119°32'0 0.0
2016-Dec-23 13:31N 35°22' E 119°32'0 0.0
2016-Dec-23 11:25N 35°22' E 119°32'0 0.0
2016-Dec-23 09:25N 35°22' E 119°32'2 1.8
2016-Dec-23 08:33N 35°21' E 119°33'8 8.3
2016-Dec-23 07:33N 35°15' E 119°40'1 1.1
2016-Dec-23 06:30N 35°14' E 119°40'0 0.0
2016-Dec-23 03:12N 35°14' E 119°40'0 0.0
2016-Dec-23 02:30N 35°14' E 119°40'0 0.0
2016-Dec-23 01:30N 35°14' E 119°40'0 0.2
2016-Dec-23 00:30N 35°14' E 119°40'0 0.1
2016-Dec-22 23:30N 35°14' E 119°40'0 0.0
2016-Dec-22 22:30N 35°15' E 119°40'0 0.0
2016-Dec-22 21:24N 35°14' E 119°40'0 0.0
2016-Dec-22 20:30N 35°14' E 119°40'0 0.1
2016-Dec-22 19:33N 35°14' E 119°40'5 5.1
2016-Dec-22 18:33N 35°14' E 119°46'  
Track history (hours):
 
Tides and Currents Weather Stations Pressure Air Temp Water Temp Dewpoint Dewpoint Depression Visibility Wind Speed Wind Dir Waves Ship Positions

Green Garnet

Last reported at 2016-Dec-26 04:31 UTC. Time now 2017-Mar-25 09:53 UTC.
Position N 35°22' E 119°32'.
Warning: this ship's position is months out of date.

Length 209 m; draft 10.5 m.

Type: Cargo ship. MMSI: 356345000.

Date/timePositionNaut miles runAvg speedWind from/ knotsBaromVisibWave heightAir tempDewpointWater temp
2016-Dec-26 04:31N 35°22' E 119°32'0 0.0
2016-Dec-26 03:31N 35°22' E 119°32'0 0.0
2016-Dec-26 02:31N 35°22' E 119°32'0 0.0
2016-Dec-26 01:31N 35°22' E 119°32'0 0.0
2016-Dec-26 00:31N 35°22' E 119°32'0 0.0
2016-Dec-25 23:31N 35°22' E 119°32'0 0.0
2016-Dec-25 22:31N 35°22' E 119°32'0 0.0
2016-Dec-25 21:25N 35°22' E 119°32'0 0.0
2016-Dec-25 20:13N 35°22' E 119°32'0 0.1
2016-Dec-25 19:31N 35°22' E 119°32'0 0.0
2016-Dec-25 18:14N 35°22' E 119°32'0 0.1
2016-Dec-25 17:32N 35°22' E 119°32'0 0.0
2016-Dec-25 16:32N 35°22' E 119°32'0 0.0
2016-Dec-25 15:32N 35°22' E 119°32'0 0.0
2016-Dec-25 14:14N 35°22' E 119°32'0 0.0
2016-Dec-25 13:32N 35°22' E 119°32'0 0.0
2016-Dec-25 11:32N 35°22' E 119°32'0 0.0
2016-Dec-25 10:26N 35°22' E 119°32'0 0.1
2016-Dec-25 09:32N 35°22' E 119°32'0 0.0
2016-Dec-25 08:32N 35°22' E 119°32'0 0.0
2016-Dec-25 07:32N 35°22' E 119°32'0 0.0
2016-Dec-25 06:26N 35°22' E 119°32'0 0.1
2016-Dec-25 05:32N 35°22' E 119°32'0 0.0
2016-Dec-25 04:25N 35°22' E 119°32'0 0.0
2016-Dec-25 03:25N 35°22' E 119°32'0 0.1
2016-Dec-25 02:31N 35°22' E 119°32'0 0.0
2016-Dec-25 01:31N 35°22' E 119°32'0 0.0
2016-Dec-25 00:25N 35°22' E 119°32'0 0.0
2016-Dec-24 23:25N 35°22' E 119°32'0 0.0
2016-Dec-24 22:13N 35°22' E 119°32'0 0.0
2016-Dec-24 21:31N 35°22' E 119°32'0 0.0
2016-Dec-24 18:07N 35°22' E 119°32'0 0.1
2016-Dec-24 17:31N 35°22' E 119°32'0 0.0
2016-Dec-24 14:31N 35°22' E 119°32'0 0.0
2016-Dec-24 13:31N 35°22' E 119°32'0 0.0
2016-Dec-24 12:13N 35°22' E 119°32'0 0.1
2016-Dec-24 11:25N 35°22' E 119°32'0 0.1
2016-Dec-24 10:31N 35°22' E 119°32'0 0.0
2016-Dec-24 09:13N 35°22' E 119°32'0 0.1
2016-Dec-24 08:31N 35°22' E 119°32'0 0.0
2016-Dec-24 07:07N 35°22' E 119°32'0 0.0
2016-Dec-24 05:31N 35°22' E 119°32'0 0.0
2016-Dec-24 04:19N 35°22' E 119°32'0 0.1
2016-Dec-24 03:31N 35°22' E 119°32'0 0.0
2016-Dec-24 02:31N 35°22' E 119°32'0 0.0
2016-Dec-23 23:31N 35°22' E 119°32'0 0.0
2016-Dec-23 20:31N 35°22' E 119°32'0 0.0
2016-Dec-23 19:25N 35°22' E 119°32'0 0.0
2016-Dec-23 17:31N 35°22' E 119°32'0 0.0
2016-Dec-23 16:07N 35°22' E 119°32'0 0.0
2016-Dec-23 14:25N 35°22' E 119°32'0 0.0
2016-Dec-23 13:31N 35°22' E 119°32'0 0.0
2016-Dec-23 11:25N 35°22' E 119°32'0 0.0
2016-Dec-23 09:25N 35°22' E 119°32'2 1.8
2016-Dec-23 08:33N 35°21' E 119°33'8 8.3
2016-Dec-23 07:33N 35°15' E 119°40'1 1.1
2016-Dec-23 06:30N 35°14' E 119°40'0 0.0
2016-Dec-23 03:12N 35°14' E 119°40'0 0.0
2016-Dec-23 02:30N 35°14' E 119°40'0 0.0
2016-Dec-23 01:30N 35°14' E 119°40'0 0.2
2016-Dec-23 00:30N 35°14' E 119°40'0 0.1
2016-Dec-22 23:30N 35°14' E 119°40'0 0.0
2016-Dec-22 22:30N 35°15' E 119°40'0 0.0
2016-Dec-22 21:24N 35°14' E 119°40'0 0.0
2016-Dec-22 20:30N 35°14' E 119°40'0 0.1
2016-Dec-22 19:33N 35°14' E 119°40'5 5.1
2016-Dec-22 18:33N 35°14' E 119°46'  

Dump ship's entire track history